< < Back
Terminal Aerodrome Forecast


Current Version              Previous Versions:   1  2  3  4  5  6  7  8  9  

Terminal Aerodrome Forecast

767
FTUS42 KJAX 302000 AAA
TAFJAX
TAF AMD
KJAX 302029Z 3020/3118 34005KT P6SM VCTS SCT040CB BKN250
     FM302200 34006KT P6SM VCSH SCT020 BKN040
     FM310600 35006KT P6SM SCT015 BKN060
     FM311500 33008KT P6SM FEW040=

Latest METAR

638
SAUS80 KWBC 302300 RRA
MTRJAX
METAR KJAX 302256Z 08003KT 10SM SCT034 BKN090 BKN250 22/20 A2990 RMK AO2
SLP124 T02170200


USA.gov is the U.S. government's official web portal to all federal, state and local government web resources and services.